sensor_id;sensor_type;location;lat;lon;timestamp;temperature;humidity
11764;DHT22;5939;56.522;14.950;2023-05-10T00:00:39;11.70;92.70
11764;DHT22;5939;56.522;14.950;2023-05-10T00:03:04;11.60;93.00
11764;DHT22;5939;56.522;14.950;2023-05-10T00:05:31;11.70;92.70
11764;DHT22;5939;56.522;14.950;2023-05-10T00:07:57;11.60;93.10
11764;DHT22;5939;56.522;14.950;2023-05-10T00:10:22;11.50;92.70
11764;DHT22;5939;56.522;14.950;2023-05-10T00:12:48;11.60;92.70
11764;DHT22;5939;56.522;14.950;2023-05-10T00:15:14;11.60;92.70
11764;DHT22;5939;56.522;14.950;2023-05-10T00:17:39;11.60;92.80
11764;DHT22;5939;56.522;14.950;2023-05-10T00:20:06;11.50;92.80
11764;DHT22;5939;56.522;14.950;2023-05-10T00:22:32;11.50;92.80
11764;DHT22;5939;56.522;14.950;2023-05-10T00:24:58;11.50;92.90
11764;DHT22;5939;56.522;14.950;2023-05-10T00:27:23;11.50;93.00
11764;DHT22;5939;56.522;14.950;2023-05-10T00:29:49;11.50;93.00
11764;DHT22;5939;56.522;14.950;2023-05-10T00:32:15;11.40;93.00
11764;DHT22;5939;56.522;14.950;2023-05-10T00:34:41;11.40;93.10
11764;DHT22;5939;56.522;14.950;2023-05-10T00:37:07;11.40;93.10
11764;DHT22;5939;56.522;14.950;2023-05-10T00:39:33;11.40;93.10
11764;DHT22;5939;56.522;14.950;2023-05-10T00:41:59;11.40;93.10
11764;DHT22;5939;56.522;14.950;2023-05-10T00:44:25;11.30;93.10
11764;DHT22;5939;56.522;14.950;2023-05-10T00:46:51;11.30;93.10
11764;DHT22;5939;56.522;14.950;2023-05-10T00:49:16;11.30;93.20
11764;DHT22;5939;56.522;14.950;2023-05-10T00:51:43;11.30;93.20
11764;DHT22;5939;56.522;14.950;2023-05-10T00:54:14;11.30;93.20
11764;DHT22;5939;56.522;14.950;2023-05-10T00:56:40;11.30;93.30
11764;DHT22;5939;56.522;14.950;2023-05-10T00:59:09;11.20;93.20
11764;DHT22;5939;56.522;14.950;2023-05-10T01:01:35;11.20;93.30
11764;DHT22;5939;56.522;14.950;2023-05-10T01:04:02;11.20;93.30
11764;DHT22;5939;56.522;14.950;2023-05-10T01:06:28;11.20;93.30
11764;DHT22;5939;56.522;14.950;2023-05-10T01:08:55;11.20;93.30
11764;DHT22;5939;56.522;14.950;2023-05-10T01:11:21;11.20;93.20
11764;DHT22;5939;56.522;14.950;2023-05-10T01:13:53;11.10;93.30
11764;DHT22;5939;56.522;14.950;2023-05-10T01:16:20;11.20;93.40
11764;DHT22;5939;56.522;14.950;2023-05-10T01:18:46;11.10;93.30
11764;DHT22;5939;56.522;14.950;2023-05-10T01:21:37;11.10;93.40
11764;DHT22;5939;56.522;14.950;2023-05-10T01:35:15;11.00;93.60
11764;DHT22;5939;56.522;14.950;2023-05-10T01:37:46;11.00;93.60
11764;DHT22;5939;56.522;14.950;2023-05-10T01:40:28;10.90;93.70
11764;DHT22;5939;56.522;14.950;2023-05-10T01:43:01;10.90;93.80
11764;DHT22;5939;56.522;14.950;2023-05-10T01:45:39;10.90;93.70
11764;DHT22;5939;56.522;14.950;2023-05-10T01:48:09;10.90;93.70
11764;DHT22;5939;56.522;14.950;2023-05-10T01:50:37;10.80;93.70
11764;DHT22;5939;56.522;14.950;2023-05-10T01:53:07;10.80;93.70
11764;DHT22;5939;56.522;14.950;2023-05-10T01:55:47;10.80;93.80
11764;DHT22;5939;56.522;14.950;2023-05-10T01:58:17;10.80;93.80
11764;DHT22;5939;56.522;14.950;2023-05-10T02:00:45;10.70;93.70
11764;DHT22;5939;56.522;14.950;2023-05-10T05:54:30;10.80;93.80
11764;DHT22;5939;56.522;14.950;2023-05-10T05:56:57;10.90;95.20
11764;DHT22;5939;56.522;14.950;2023-05-10T05:59:22;11.00;95.20
11764;DHT22;5939;56.522;14.950;2023-05-10T06:01:48;11.10;95.20
11764;DHT22;5939;56.522;14.950;2023-05-10T06:04:14;11.30;95.20
11764;DHT22;5939;56.522;14.950;2023-05-10T06:06:40;11.40;95.20
11764;DHT22;5939;56.522;14.950;2023-05-10T06:09:05;11.50;95.10
11764;DHT22;5939;56.522;14.950;2023-05-10T06:11:31;11.60;95.10
11764;DHT22;5939;56.522;14.950;2023-05-10T06:14:00;11.70;95.10
11764;DHT22;5939;56.522;14.950;2023-05-10T06:16:26;11.80;95.00
11764;DHT22;5939;56.522;14.950;2023-05-10T06:18:51;12.00;94.90
11764;DHT22;5939;56.522;14.950;2023-05-10T06:21:17;12.10;95.00
11764;DHT22;5939;56.522;14.950;2023-05-10T06:23:43;12.20;95.00
11764;DHT22;5939;56.522;14.950;2023-05-10T06:26:09;12.40;94.90
11764;DHT22;5939;56.522;14.950;2023-05-10T06:28:35;12.50;94.80
11764;DHT22;5939;56.522;14.950;2023-05-10T06:31:03;12.60;94.80
11764;DHT22;5939;56.522;14.950;2023-05-10T06:33:29;12.80;94.70
11764;DHT22;5939;56.522;14.950;2023-05-10T06:35:55;12.90;94.60
11764;DHT22;5939;56.522;14.950;2023-05-10T06:38:21;13.00;94.60
11764;DHT22;5939;56.522;14.950;2023-05-10T06:40:47;13.10;94.40
11764;DHT22;5939;56.522;14.950;2023-05-10T06:43:12;13.30;94.30
11764;DHT22;5939;56.522;14.950;2023-05-10T06:45:38;13.40;94.20
11764;DHT22;5939;56.522;14.950;2023-05-10T06:48:04;13.50;93.90
11764;DHT22;5939;56.522;14.950;2023-05-10T06:50:29;13.60;93.50
11764;DHT22;5939;56.522;14.950;2023-05-10T06:52:55;13.70;93.40
11764;DHT22;5939;56.522;14.950;2023-05-10T06:55:21;13.80;93.50
11764;DHT22;5939;56.522;14.950;2023-05-10T06:57:46;13.90;93.30
11764;DHT22;5939;56.522;14.950;2023-05-10T07:00:13;14.00;93.20
11764;DHT22;5939;56.522;14.950;2023-05-10T07:02:39;14.20;92.90
11764;DHT22;5939;56.522;14.950;2023-05-10T07:05:05;14.30;92.80
11764;DHT22;5939;56.522;14.950;2023-05-10T07:07:31;14.40;92.50
11764;DHT22;5939;56.522;14.950;2023-05-10T07:09:57;14.50;92.40
11764;DHT22;5939;56.522;14.950;2023-05-10T07:12:23;14.60;92.20
11764;DHT22;5939;56.522;14.950;2023-05-10T07:14:49;14.70;92.20
11764;DHT22;5939;56.522;14.950;2023-05-10T07:17:15;14.80;92.10
11764;DHT22;5939;56.522;14.950;2023-05-10T07:19:40;14.80;92.00
11764;DHT22;5939;56.522;14.950;2023-05-10T07:22:06;14.90;91.40
11764;DHT22;5939;56.522;14.950;2023-05-10T07:24:32;15.00;91.30
11764;DHT22;5939;56.522;14.950;2023-05-10T07:26:58;15.10;91.30
11764;DHT22;5939;56.522;14.950;2023-05-10T07:29:24;15.20;91.50
11764;DHT22;5939;56.522;14.950;2023-05-10T07:31:49;15.30;90.90
11764;DHT22;5939;56.522;14.950;2023-05-10T07:34:15;15.40;90.70
11764;DHT22;5939;56.522;14.950;2023-05-10T07:36:41;15.40;90.30
11764;DHT22;5939;56.522;14.950;2023-05-10T07:39:07;15.50;90.40
11764;DHT22;5939;56.522;14.950;2023-05-10T07:41:32;15.60;90.50
11764;DHT22;5939;56.522;14.950;2023-05-10T07:43:58;15.70;90.40
11764;DHT22;5939;56.522;14.950;2023-05-10T07:46:24;15.70;90.70
11764;DHT22;5939;56.522;14.950;2023-05-10T07:48:49;15.80;90.60
11764;DHT22;5939;56.522;14.950;2023-05-10T07:51:15;15.90;90.50
11764;DHT22;5939;56.522;14.950;2023-05-10T07:53:41;15.90;90.50
11764;DHT22;5939;56.522;14.950;2023-05-10T07:56:27;16.00;90.30
11764;DHT22;5939;56.522;14.950;2023-05-10T07:58:55;16.10;89.40
11764;DHT22;5939;56.522;14.950;2023-05-10T08:01:22;16.20;89.90
11764;DHT22;5939;56.522;14.950;2023-05-10T08:03:48;16.20;87.90
11764;DHT22;5939;56.522;14.950;2023-05-10T08:06:15;16.30;88.60
11764;DHT22;5939;56.522;14.950;2023-05-10T08:08:41;16.40;89.30
11764;DHT22;5939;56.522;14.950;2023-05-10T08:11:06;16.40;89.40
11764;DHT22;5939;56.522;14.950;2023-05-10T08:13:32;16.50;87.40
11764;DHT22;5939;56.522;14.950;2023-05-10T08:15:58;16.50;87.80
11764;DHT22;5939;56.522;14.950;2023-05-10T08:18:24;16.60;87.10
11764;DHT22;5939;56.522;14.950;2023-05-10T08:20:50;16.70;87.30
11764;DHT22;5939;56.522;14.950;2023-05-10T08:23:15;16.70;86.80
11764;DHT22;5939;56.522;14.950;2023-05-10T08:25:41;16.80;86.40
11764;DHT22;5939;56.522;14.950;2023-05-10T08:28:06;16.80;86.60
11764;DHT22;5939;56.522;14.950;2023-05-10T08:30:32;16.90;85.90
11764;DHT22;5939;56.522;14.950;2023-05-10T08:32:58;17.00;85.00
11764;DHT22;5939;56.522;14.950;2023-05-10T08:35:23;17.10;85.10
11764;DHT22;5939;56.522;14.950;2023-05-10T08:37:50;17.10;86.00
11764;DHT22;5939;56.522;14.950;2023-05-10T08:40:19;17.20;84.20
11764;DHT22;5939;56.522;14.950;2023-05-10T08:42:51;17.20;85.70
11764;DHT22;5939;56.522;14.950;2023-05-10T08:45:23;17.30;86.10
11764;DHT22;5939;56.522;14.950;2023-05-10T08:47:50;17.30;85.60
11764;DHT22;5939;56.522;14.950;2023-05-10T08:50:17;17.40;84.00
11764;DHT22;5939;56.522;14.950;2023-05-10T08:52:45;17.40;84.50
11764;DHT22;5939;56.522;14.950;2023-05-10T08:55:13;17.40;83.90
11764;DHT22;5939;56.522;14.950;2023-05-10T08:57:40;17.40;83.20
11764;DHT22;5939;56.522;14.950;2023-05-10T09:00:06;17.50;81.90
11764;DHT22;5939;56.522;14.950;2023-05-10T09:02:34;17.60;81.70
11764;DHT22;5939;56.522;14.950;2023-05-10T09:05:00;17.60;82.50
11764;DHT22;5939;56.522;14.950;2023-05-10T09:07:27;17.60;82.50
11764;DHT22;5939;56.522;14.950;2023-05-10T09:09:53;17.70;81.00
11764;DHT22;5939;56.522;14.950;2023-05-10T09:12:19;17.70;82.40
11764;DHT22;5939;56.522;14.950;2023-05-10T09:14:45;17.80;81.30
11764;DHT22;5939;56.522;14.950;2023-05-10T09:17:11;17.80;81.30
11764;DHT22;5939;56.522;14.950;2023-05-10T09:19:37;17.80;82.00
11764;DHT22;5939;56.522;14.950;2023-05-10T09:22:03;17.90;81.80
11764;DHT22;5939;56.522;14.950;2023-05-10T09:24:30;17.90;81.70
11764;DHT22;5939;56.522;14.950;2023-05-10T09:26:57;18.00;81.30
11764;DHT22;5939;56.522;14.950;2023-05-10T09:29:23;18.00;82.00
11764;DHT22;5939;56.522;14.950;2023-05-10T09:31:51;18.00;81.50
11764;DHT22;5939;56.522;14.950;2023-05-10T09:34:31;18.10;81.70
11764;DHT22;5939;56.522;14.950;2023-05-10T09:37:00;18.10;82.00
11764;DHT22;5939;56.522;14.950;2023-05-10T09:39:31;18.10;81.70
11764;DHT22;5939;56.522;14.950;2023-05-10T09:41:58;18.10;81.70
11764;DHT22;5939;56.522;14.950;2023-05-10T09:44:26;18.20;81.70
11764;DHT22;5939;56.522;14.950;2023-05-10T09:46:52;18.20;80.40
11764;DHT22;5939;56.522;14.950;2023-05-10T09:49:19;18.20;81.40
11764;DHT22;5939;56.522;14.950;2023-05-10T09:51:45;18.30;80.10
11764;DHT22;5939;56.522;14.950;2023-05-10T09:54:13;18.30;81.40
11764;DHT22;5939;56.522;14.950;2023-05-10T09:56:40;18.40;80.60
11764;DHT22;5939;56.522;14.950;2023-05-10T09:59:14;18.40;80.40
11764;DHT22;5939;56.522;14.950;2023-05-10T10:01:40;18.50;80.80
11764;DHT22;5939;56.522;14.950;2023-05-10T10:04:07;18.50;81.90
11764;DHT22;5939;56.522;14.950;2023-05-10T10:06:40;18.60;80.80
11764;DHT22;5939;56.522;14.950;2023-05-10T10:09:06;18.70;80.70
11764;DHT22;5939;56.522;14.950;2023-05-10T10:11:38;18.70;79.60
11764;DHT22;5939;56.522;14.950;2023-05-10T10:14:04;18.80;80.70
11764;DHT22;5939;56.522;14.950;2023-05-10T10:16:31;18.80;79.00
11764;DHT22;5939;56.522;14.950;2023-05-10T10:18:58;18.80;79.10
11764;DHT22;5939;56.522;14.950;2023-05-10T10:21:23;18.90;78.40
11764;DHT22;5939;56.522;14.950;2023-05-10T10:23:49;18.90;79.40
11764;DHT22;5939;56.522;14.950;2023-05-10T10:26:17;18.90;79.40
11764;DHT22;5939;56.522;14.950;2023-05-10T10:31:39;19.00;78.80
11764;DHT22;5939;56.522;14.950;2023-05-10T10:34:08;19.00;79.90
11764;DHT22;5939;56.522;14.950;2023-05-10T10:36:52;19.00;78.80
11764;DHT22;5939;56.522;14.950;2023-05-10T10:39:20;19.00;78.60
11764;DHT22;5939;56.522;14.950;2023-05-10T10:41:50;19.10;78.90
11764;DHT22;5939;56.522;14.950;2023-05-10T10:47:05;19.10;78.10
11764;DHT22;5939;56.522;14.950;2023-05-10T10:55:14;19.20;77.70
11764;DHT22;5939;56.522;14.950;2023-05-10T11:03:13;19.40;79.00
11764;DHT22;5939;56.522;14.950;2023-05-10T11:05:49;19.40;78.30
11764;DHT22;5939;56.522;14.950;2023-05-10T11:08:30;19.40;79.20
11764;DHT22;5939;56.522;14.950;2023-05-10T11:13:45;19.40;78.10
11764;DHT22;5939;56.522;14.950;2023-05-10T11:16:19;19.50;79.10
11764;DHT22;5939;56.522;14.950;2023-05-10T11:21:27;19.60;78.10
11764;DHT22;5939;56.522;14.950;2023-05-10T11:23:57;19.50;78.80
11764;DHT22;5939;56.522;14.950;2023-05-10T11:26:50;19.60;78.40
11764;DHT22;5939;56.522;14.950;2023-05-10T11:29:17;19.60;78.40
11764;DHT22;5939;56.522;14.950;2023-05-10T11:31:44;19.60;78.70
11764;DHT22;5939;56.522;14.950;2023-05-10T11:34:10;19.60;78.80
11764;DHT22;5939;56.522;14.950;2023-05-10T11:36:36;19.70;78.70
11764;DHT22;5939;56.522;14.950;2023-05-10T11:39:03;19.70;79.20
11764;DHT22;5939;56.522;14.950;2023-05-10T11:41:30;19.70;79.70
11764;DHT22;5939;56.522;14.950;2023-05-10T11:43:56;19.70;79.00
11764;DHT22;5939;56.522;14.950;2023-05-10T11:46:26;19.70;79.00
11764;DHT22;5939;56.522;14.950;2023-05-10T11:49:02;19.70;78.90
11764;DHT22;5939;56.522;14.950;2023-05-10T11:51:32;19.70;78.80
11764;DHT22;5939;56.522;14.950;2023-05-10T11:53:58;19.70;79.10
11764;DHT22;5939;56.522;14.950;2023-05-10T11:56:23;19.70;79.70
11764;DHT22;5939;56.522;14.950;2023-05-10T11:58:56;19.70;79.60
11764;DHT22;5939;56.522;14.950;2023-05-10T12:01:23;19.70;79.20
11764;DHT22;5939;56.522;14.950;2023-05-10T12:03:50;19.70;78.50
11764;DHT22;5939;56.522;14.950;2023-05-10T12:06:16;19.70;79.00
11764;DHT22;5939;56.522;14.950;2023-05-10T12:08:47;19.80;78.60
11764;DHT22;5939;56.522;14.950;2023-05-10T12:11:13;19.80;78.70
11764;DHT22;5939;56.522;14.950;2023-05-10T12:13:41;19.80;79.30
11764;DHT22;5939;56.522;14.950;2023-05-10T12:16:15;19.80;79.90
11764;DHT22;5939;56.522;14.950;2023-05-10T12:18:41;19.70;79.00
11764;DHT22;5939;56.522;14.950;2023-05-10T12:21:10;19.70;79.00
11764;DHT22;5939;56.522;14.950;2023-05-10T12:23:36;19.70;78.40
11764;DHT22;5939;56.522;14.950;2023-05-10T12:26:02;19.70;79.30
11764;DHT22;5939;56.522;14.950;2023-05-10T12:28:32;19.70;78.30
11764;DHT22;5939;56.522;14.950;2023-05-10T12:30:59;19.70;78.90
11764;DHT22;5939;56.522;14.950;2023-05-10T12:33:25;19.70;79.10
11764;DHT22;5939;56.522;14.950;2023-05-10T12:35:53;19.70;78.80
11764;DHT22;5939;56.522;14.950;2023-05-10T12:41:00;19.70;78.80
11764;DHT22;5939;56.522;14.950;2023-05-10T12:43:26;19.70;79.20
11764;DHT22;5939;56.522;14.950;2023-05-10T12:45:52;19.70;79.40
11764;DHT22;5939;56.522;14.950;2023-05-10T12:48:17;19.70;79.70
11764;DHT22;5939;56.522;14.950;2023-05-10T12:50:43;19.70;79.40
11764;DHT22;5939;56.522;14.950;2023-05-10T12:53:09;19.70;79.50
11764;DHT22;5939;56.522;14.950;2023-05-10T12:55:34;19.70;79.20
11764;DHT22;5939;56.522;14.950;2023-05-10T12:58:00;19.70;79.80
11764;DHT22;5939;56.522;14.950;2023-05-10T13:00:26;19.70;79.10
11764;DHT22;5939;56.522;14.950;2023-05-10T13:02:51;19.70;79.20
11764;DHT22;5939;56.522;14.950;2023-05-10T13:05:17;19.60;79.80
11764;DHT22;5939;56.522;14.950;2023-05-10T13:07:43;19.60;78.00
11764;DHT22;5939;56.522;14.950;2023-05-10T13:10:09;19.60;79.10
11764;DHT22;5939;56.522;14.950;2023-05-10T13:12:35;19.50;78.80
11764;DHT22;5939;56.522;14.950;2023-05-10T13:15:01;19.50;78.70
11764;DHT22;5939;56.522;14.950;2023-05-10T13:17:28;19.40;79.80
11764;DHT22;5939;56.522;14.950;2023-05-10T13:19:54;19.40;79.30
11764;DHT22;5939;56.522;14.950;2023-05-10T13:22:20;19.40;78.60
11764;DHT22;5939;56.522;14.950;2023-05-10T13:24:46;19.30;78.70
11764;DHT22;5939;56.522;14.950;2023-05-10T13:27:11;19.30;79.00
11764;DHT22;5939;56.522;14.950;2023-05-10T13:29:37;19.20;79.80
11764;DHT22;5939;56.522;14.950;2023-05-10T13:32:03;19.20;78.90
11764;DHT22;5939;56.522;14.950;2023-05-10T13:34:28;19.10;79.00
11764;DHT22;5939;56.522;14.950;2023-05-10T13:36:54;19.10;78.30
11764;DHT22;5939;56.522;14.950;2023-05-10T13:39:21;19.00;78.20
11764;DHT22;5939;56.522;14.950;2023-05-10T13:41:47;19.00;78.40
11764;DHT22;5939;56.522;14.950;2023-05-10T13:44:14;18.90;78.40
11764;DHT22;5939;56.522;14.950;2023-05-10T13:46:41;18.90;78.80
11764;DHT22;5939;56.522;14.950;2023-05-10T13:49:08;18.90;78.40
11764;DHT22;5939;56.522;14.950;2023-05-10T13:51:34;18.80;78.40
11764;DHT22;5939;56.522;14.950;2023-05-10T13:54:00;18.80;78.50
11764;DHT22;5939;56.522;14.950;2023-05-10T13:56:25;18.70;78.90
11764;DHT22;5939;56.522;14.950;2023-05-10T13:58:51;18.70;79.30
11764;DHT22;5939;56.522;14.950;2023-05-10T14:01:17;18.60;78.60
11764;DHT22;5939;56.522;14.950;2023-05-10T14:03:43;18.50;78.70
11764;DHT22;5939;56.522;14.950;2023-05-10T14:06:08;18.50;79.40
11764;DHT22;5939;56.522;14.950;2023-05-10T14:08:35;18.50;78.70
11764;DHT22;5939;56.522;14.950;2023-05-10T14:11:01;18.40;79.00
11764;DHT22;5939;56.522;14.950;2023-05-10T14:13:26;18.40;78.50
11764;DHT22;5939;56.522;14.950;2023-05-10T14:15:53;18.30;78.90
11764;DHT22;5939;56.522;14.950;2023-05-10T14:18:19;18.30;79.60
11764;DHT22;5939;56.522;14.950;2023-05-10T14:20:45;18.30;79.30
11764;DHT22;5939;56.522;14.950;2023-05-10T14:23:11;18.30;78.60
11764;DHT22;5939;56.522;14.950;2023-05-10T14:25:37;18.20;79.20
11764;DHT22;5939;56.522;14.950;2023-05-10T14:28:03;18.20;79.40
11764;DHT22;5939;56.522;14.950;2023-05-10T14:30:29;18.10;79.40
11764;DHT22;5939;56.522;14.950;2023-05-10T14:32:54;18.10;79.50
11764;DHT22;5939;56.522;14.950;2023-05-10T14:35:20;18.10;79.30
11764;DHT22;5939;56.522;14.950;2023-05-10T14:37:46;18.00;79.90
11764;DHT22;5939;56.522;14.950;2023-05-10T14:40:12;18.00;81.00
11764;DHT22;5939;56.522;14.950;2023-05-10T14:42:38;18.00;79.80
11764;DHT22;5939;56.522;14.950;2023-05-10T14:45:04;18.00;80.00
11764;DHT22;5939;56.522;14.950;2023-05-10T14:47:30;17.90;80.00
11764;DHT22;5939;56.522;14.950;2023-05-10T14:49:56;17.90;79.60
11764;DHT22;5939;56.522;14.950;2023-05-10T14:52:21;17.90;80.10
11764;DHT22;5939;56.522;14.950;2023-05-10T14:54:47;17.80;80.20
11764;DHT22;5939;56.522;14.950;2023-05-10T14:57:13;17.80;80.20
11764;DHT22;5939;56.522;14.950;2023-05-10T14:59:38;17.80;80.40
11764;DHT22;5939;56.522;14.950;2023-05-10T15:02:04;17.70;80.20
11764;DHT22;5939;56.522;14.950;2023-05-10T15:04:30;17.70;80.10
11764;DHT22;5939;56.522;14.950;2023-05-10T15:06:55;17.70;80.70
11764;DHT22;5939;56.522;14.950;2023-05-10T15:09:24;17.70;81.00
11764;DHT22;5939;56.522;14.950;2023-05-10T15:11:50;17.70;80.50
11764;DHT22;5939;56.522;14.950;2023-05-10T15:14:16;17.60;80.70
11764;DHT22;5939;56.522;14.950;2023-05-10T15:16:41;17.70;81.50
11764;DHT22;5939;56.522;14.950;2023-05-10T15:19:07;17.60;81.40
11764;DHT22;5939;56.522;14.950;2023-05-10T15:21:32;17.60;81.30
11764;DHT22;5939;56.522;14.950;2023-05-10T15:24:05;17.60;80.90
11764;DHT22;5939;56.522;14.950;2023-05-10T15:26:30;17.60;81.10
11764;DHT22;5939;56.522;14.950;2023-05-10T15:28:56;17.50;81.40
11764;DHT22;5939;56.522;14.950;2023-05-10T15:31:22;17.50;81.70
11764;DHT22;5939;56.522;14.950;2023-05-10T15:33:48;17.50;81.60
11764;DHT22;5939;56.522;14.950;2023-05-10T15:36:13;17.50;82.00
11764;DHT22;5939;56.522;14.950;2023-05-10T15:38:39;17.50;82.00
11764;DHT22;5939;56.522;14.950;2023-05-10T15:41:04;17.40;82.00
11764;DHT22;5939;56.522;14.950;2023-05-10T15:43:30;17.40;82.20
11764;DHT22;5939;56.522;14.950;2023-05-10T15:45:56;17.40;82.40
11764;DHT22;5939;56.522;14.950;2023-05-10T15:48:22;17.40;82.10
11764;DHT22;5939;56.522;14.950;2023-05-10T15:50:47;17.30;82.60
11764;DHT22;5939;56.522;14.950;2023-05-10T15:53:13;17.40;82.20
11764;DHT22;5939;56.522;14.950;2023-05-10T15:55:38;17.30;82.30
11764;DHT22;5939;56.522;14.950;2023-05-10T15:58:04;17.30;82.10
11764;DHT22;5939;56.522;14.950;2023-05-10T16:00:30;17.30;82.50
11764;DHT22;5939;56.522;14.950;2023-05-10T16:02:56;17.30;82.80
11764;DHT22;5939;56.522;14.950;2023-05-10T16:05:21;17.20;82.00
11764;DHT22;5939;56.522;14.950;2023-05-10T16:07:47;17.20;82.20
11764;DHT22;5939;56.522;14.950;2023-05-10T16:10:13;17.20;82.10
11764;DHT22;5939;56.522;14.950;2023-05-10T16:12:39;17.20;82.40
11764;DHT22;5939;56.522;14.950;2023-05-10T16:15:05;17.20;82.80
11764;DHT22;5939;56.522;14.950;2023-05-10T16:17:31;17.10;82.90
11764;DHT22;5939;56.522;14.950;2023-05-10T16:19:57;17.10;82.20
11764;DHT22;5939;56.522;14.950;2023-05-10T16:22:24;17.10;82.50
11764;DHT22;5939;56.522;14.950;2023-05-10T16:24:51;17.10;83.10
11764;DHT22;5939;56.522;14.950;2023-05-10T16:27:18;17.10;83.30
11764;DHT22;5939;56.522;14.950;2023-05-10T16:29:44;17.10;83.20
11764;DHT22;5939;56.522;14.950;2023-05-10T16:32:09;17.00;83.00
11764;DHT22;5939;56.522;14.950;2023-05-10T16:34:35;17.00;83.30
11764;DHT22;5939;56.522;14.950;2023-05-10T16:37:01;17.00;83.00
11764;DHT22;5939;56.522;14.950;2023-05-10T16:39:26;17.00;82.90
11764;DHT22;5939;56.522;14.950;2023-05-10T16:41:52;16.90;83.10
11764;DHT22;5939;56.522;14.950;2023-05-10T16:44:18;16.90;83.30
11764;DHT22;5939;56.522;14.950;2023-05-10T16:46:43;16.90;83.20
11764;DHT22;5939;56.522;14.950;2023-05-10T16:49:09;16.90;83.70
11764;DHT22;5939;56.522;14.950;2023-05-10T16:51:36;16.90;83.40
11764;DHT22;5939;56.522;14.950;2023-05-10T16:54:02;16.90;83.40
11764;DHT22;5939;56.522;14.950;2023-05-10T16:56:28;16.90;83.60
11764;DHT22;5939;56.522;14.950;2023-05-10T16:58:53;16.80;83.80
11764;DHT22;5939;56.522;14.950;2023-05-10T17:01:19;16.80;83.50
11764;DHT22;5939;56.522;14.950;2023-05-10T17:03:45;16.80;83.40
11764;DHT22;5939;56.522;14.950;2023-05-10T17:06:11;16.80;83.70
11764;DHT22;5939;56.522;14.950;2023-05-10T17:08:37;16.80;83.70
11764;DHT22;5939;56.522;14.950;2023-05-10T17:11:03;16.70;83.20
11764;DHT22;5939;56.522;14.950;2023-05-10T17:13:29;16.70;83.00
11764;DHT22;5939;56.522;14.950;2023-05-10T17:15:55;16.70;82.40
11764;DHT22;5939;56.522;14.950;2023-05-10T17:18:21;16.60;83.00
11764;DHT22;5939;56.522;14.950;2023-05-10T17:20:46;16.70;82.90
11764;DHT22;5939;56.522;14.950;2023-05-10T17:23:12;16.60;83.20
11764;DHT22;5939;56.522;14.950;2023-05-10T17:25:38;16.60;83.50
11764;DHT22;5939;56.522;14.950;2023-05-10T17:28:03;16.60;83.30
11764;DHT22;5939;56.522;14.950;2023-05-10T17:30:29;16.60;83.40
11764;DHT22;5939;56.522;14.950;2023-05-10T17:32:58;16.60;83.80
11764;DHT22;5939;56.522;14.950;2023-05-10T17:35:24;16.50;83.60
11764;DHT22;5939;56.522;14.950;2023-05-10T17:37:50;16.50;83.50
11764;DHT22;5939;56.522;14.950;2023-05-10T17:40:16;16.50;83.30
11764;DHT22;5939;56.522;14.950;2023-05-10T17:42:41;16.50;83.20
11764;DHT22;5939;56.522;14.950;2023-05-10T17:45:08;16.50;83.00
11764;DHT22;5939;56.522;14.950;2023-05-10T17:47:33;16.50;83.30
11764;DHT22;5939;56.522;14.950;2023-05-10T17:49:59;16.40;83.30
11764;DHT22;5939;56.522;14.950;2023-05-10T17:52:25;16.40;83.40
11764;DHT22;5939;56.522;14.950;2023-05-10T17:54:51;16.40;83.70
11764;DHT22;5939;56.522;14.950;2023-05-10T17:57:17;16.40;83.50
11764;DHT22;5939;56.522;14.950;2023-05-10T17:59:43;16.30;83.60
11764;DHT22;5939;56.522;14.950;2023-05-10T18:02:08;16.30;83.70
11764;DHT22;5939;56.522;14.950;2023-05-10T18:04:34;16.30;83.60
11764;DHT22;5939;56.522;14.950;2023-05-10T18:07:00;16.30;83.60
11764;DHT22;5939;56.522;14.950;2023-05-10T18:09:29;16.30;83.70
11764;DHT22;5939;56.522;14.950;2023-05-10T18:11:54;16.30;83.80
11764;DHT22;5939;56.522;14.950;2023-05-10T18:14:20;16.20;83.90
11764;DHT22;5939;56.522;14.950;2023-05-10T18:16:47;16.20;83.90
11764;DHT22;5939;56.522;14.950;2023-05-10T18:19:13;16.20;84.10
11764;DHT22;5939;56.522;14.950;2023-05-10T18:21:39;16.20;84.20
11764;DHT22;5939;56.522;14.950;2023-05-10T18:24:04;16.20;84.20
11764;DHT22;5939;56.522;14.950;2023-05-10T18:26:30;16.10;84.00
11764;DHT22;5939;56.522;14.950;2023-05-10T18:28:56;16.10;84.20
11764;DHT22;5939;56.522;14.950;2023-05-10T18:31:22;16.10;84.00
11764;DHT22;5939;56.522;14.950;2023-05-10T18:33:48;16.10;84.20
11764;DHT22;5939;56.522;14.950;2023-05-10T18:36:13;16.10;84.50
11764;DHT22;5939;56.522;14.950;2023-05-10T18:38:39;16.00;84.20
11764;DHT22;5939;56.522;14.950;2023-05-10T18:41:05;16.00;84.30
11764;DHT22;5939;56.522;14.950;2023-05-10T18:43:31;16.00;84.40
11764;DHT22;5939;56.522;14.950;2023-05-10T18:45:59;16.00;84.50
11764;DHT22;5939;56.522;14.950;2023-05-10T18:48:25;16.00;85.50
11764;DHT22;5939;56.522;14.950;2023-05-10T18:50:51;15.90;85.30
11764;DHT22;5939;56.522;14.950;2023-05-10T18:53:17;15.90;85.30
11764;DHT22;5939;56.522;14.950;2023-05-10T18:55:42;15.90;84.70
11764;DHT22;5939;56.522;14.950;2023-05-10T18:58:08;15.90;86.00
11764;DHT22;5939;56.522;14.950;2023-05-10T19:00:34;15.80;85.10
11764;DHT22;5939;56.522;14.950;2023-05-10T19:02:59;15.80;85.10
11764;DHT22;5939;56.522;14.950;2023-05-10T19:05:25;15.80;85.20
11764;DHT22;5939;56.522;14.950;2023-05-10T19:07:55;15.80;85.30
11764;DHT22;5939;56.522;14.950;2023-05-10T19:10:20;15.80;85.40
11764;DHT22;5939;56.522;14.950;2023-05-10T19:12:46;15.80;85.60
11764;DHT22;5939;56.522;14.950;2023-05-10T19:15:12;15.80;85.80
11764;DHT22;5939;56.522;14.950;2023-05-10T19:17:38;15.70;85.90
11764;DHT22;5939;56.522;14.950;2023-05-10T19:20:05;15.70;86.00
11764;DHT22;5939;56.522;14.950;2023-05-10T19:22:31;15.70;86.00
11764;DHT22;5939;56.522;14.950;2023-05-10T19:24:57;15.60;86.00
11764;DHT22;5939;56.522;14.950;2023-05-10T19:27:22;15.60;86.10
11764;DHT22;5939;56.522;14.950;2023-05-10T19:29:48;15.60;86.30
11764;DHT22;5939;56.522;14.950;2023-05-10T19:32:14;15.60;86.40
11764;DHT22;5939;56.522;14.950;2023-05-10T19:34:39;15.60;86.40
11764;DHT22;5939;56.522;14.950;2023-05-10T19:37:05;15.60;86.50
11764;DHT22;5939;56.522;14.950;2023-05-10T19:39:31;15.50;86.50
11764;DHT22;5939;56.522;14.950;2023-05-10T19:41:57;15.50;86.50
11764;DHT22;5939;56.522;14.950;2023-05-10T19:44:24;15.50;86.60
11764;DHT22;5939;56.522;14.950;2023-05-10T19:46:49;15.50;86.60
11764;DHT22;5939;56.522;14.950;2023-05-10T19:49:15;15.50;86.80
11764;DHT22;5939;56.522;14.950;2023-05-10T19:51:41;15.40;86.80
11764;DHT22;5939;56.522;14.950;2023-05-10T19:54:07;15.40;86.90